X  Κλείσε Στοιχεία METAR Αεροπλοίας     LGBL Nea Anchialos National Airport
Θερμοκρασία
14°C Θερμοκρασία
8°C Σημείο Δρόσου
67% Υγρασία



Ανεμος
14 KM/H
9 MPH
4 M/S
8 KTS



100°
A
Τρέχουσες Συνθήκες

Μερικώς νεφελώδης Μερικώς νεφελώδης
Πίεση 1018.96 (hPa) - 30.09 (inHg)
Ορατότητα 6 (μίλι) - 9.7 (km)
Aεροδρόμιο
Κωδικός Αεροδρομίου LGBL

Τοποθεσία: Nea Anchialos National Airport
Απόσταση: 74 (km)

Metar:
LGBL 221350Z 10008KT 9999 FEW030 SCT080 14/08 Q1019

ώρα: 22-02-2024 15:50 EET